Time;durP1;ratioP1;P1;durP2;ratioP2;P2;SDS_P1;SDS_P2;PMS_P1;PMS_P2;Temp;Humidity;BMP_temperature;BMP_pressure;BME280_temperature;BME280_humidity;BME280_pressure;Samples;Min_cycle;Max_cycle;Signal;HPM_P1;HPM_P2
2023/08/17 00:03:12;;;;;;;20.55;18.92;;;16.80;99.90;;;;;;7267455;32;20100;-56
2023/08/17 00:07:14;;;;;;;19.65;17.95;;;16.80;99.90;;;;;;7257529;32;20608;-55
2023/08/17 00:11:15;;;;;;;21.37;19.48;;;16.90;99.90;;;;;;7256619;32;20550;-56
2023/08/17 00:15:17;;;;;;;19.23;17.40;;;16.90;99.90;;;;;;7264531;32;20172;-56
2023/08/17 00:19:19;;;;;;;22.67;20.52;;;16.90;99.90;;;;;;7257126;32;20450;-56
2023/08/17 00:23:21;;;;;;;22.55;20.35;;;16.80;99.90;;;;;;7266219;32;20676;-56
2023/08/17 00:27:22;;;;;;;19.98;17.98;;;16.90;99.90;;;;;;7259247;32;20101;-56
2023/08/17 00:31:25;;;;;;;19.73;17.48;;;16.80;99.90;;;;;;7258918;32;20177;-56
2023/08/17 00:35:27;;;;;;;16.77;14.73;;;16.80;99.90;;;;;;7260873;32;20157;-56
2023/08/17 00:39:28;;;;;;;19.37;14.02;;;16.70;99.90;;;;;;7254078;32;20150;-57
2023/08/17 00:43:30;;;;;;;14.93;13.32;;;16.70;99.90;;;;;;7265416;32;20105;-56
2023/08/17 00:47:32;;;;;;;13.77;11.95;;;16.60;99.90;;;;;;7268668;32;20507;-56
2023/08/17 00:51:34;;;;;;;13.27;11.88;;;16.60;99.90;;;;;;7272008;32;20191;-55
2023/08/17 00:55:36;;;;;;;12.18;10.80;;;16.60;99.90;;;;;;7267947;32;20270;-56
2023/08/17 00:59:37;;;;;;;13.13;10.48;;;16.60;99.90;;;;;;7267822;32;20096;-55
2023/08/17 01:03:42;;;;;;;13.93;9.20;;;16.60;99.90;;;;;;7256915;32;20211;-56
2023/08/17 01:07:44;;;;;;;11.38;9.95;;;16.60;99.90;;;;;;7267732;32;20123;-56
2023/08/17 01:11:57;;;;;;;12.45;10.23;;;16.60;99.90;;;;;;7262930;32;20100;-56
2023/08/17 01:16:02;;;;;;;13.98;10.48;;;16.60;99.90;;;;;;7261983;32;20321;-57
2023/08/17 01:20:05;;;;;;;12.48;10.68;;;16.60;99.90;;;;;;7270506;32;20237;-54
2023/08/17 01:24:07;;;;;;;14.25;12.23;;;16.60;99.90;;;;;;7259173;32;20562;-54
2023/08/17 01:28:09;;;;;;;14.70;11.57;;;16.50;99.90;;;;;;7266378;32;20667;-55
2023/08/17 01:32:24;;;;;;;11.68;10.35;;;16.50;99.90;;;;;;7263561;32;20123;-55
2023/08/17 01:36:49;;;;;;;14.70;12.63;;;16.60;99.90;;;;;;7270348;32;20097;-55
2023/08/17 01:40:53;;;;;;;17.45;12.93;;;16.50;99.90;;;;;;7266247;32;20182;-55
2023/08/17 01:44:55;;;;;;;16.12;13.27;;;16.50;99.90;;;;;;7271123;32;20250;-55
2023/08/17 01:48:57;;;;;;;14.75;12.77;;;16.50;99.90;;;;;;7269141;32;20128;-55
2023/08/17 01:52:59;;;;;;;17.45;14.25;;;16.50;99.90;;;;;;7271078;32;20591;-54
2023/08/17 01:57:01;;;;;;;16.65;13.15;;;16.50;99.90;;;;;;7261728;32;20853;-54
2023/08/17 02:01:03;;;;;;;14.13;12.73;;;16.50;99.90;;;;;;7259893;32;20672;-55
2023/08/17 02:05:05;;;;;;;14.63;13.13;;;16.50;99.90;;;;;;7265224;32;20271;-55
2023/08/17 02:09:07;;;;;;;16.42;13.02;;;16.40;99.90;;;;;;7270991;32;20180;-55
2023/08/17 02:13:09;;;;;;;14.43;12.80;;;16.40;99.90;;;;;;7264735;32;20132;-55
2023/08/17 02:17:21;;;;;;;18.58;14.00;;;16.40;99.90;;;;;;7269175;32;20229;-55
2023/08/17 02:21:23;;;;;;;14.77;13.13;;;16.40;99.90;;;;;;7265931;32;20179;-54
2023/08/17 02:25:24;;;;;;;12.70;11.43;;;16.40;99.90;;;;;;7269355;32;20195;-55
2023/08/17 02:29:26;;;;;;;13.25;11.73;;;16.50;99.90;;;;;;7268389;32;20135;-55
2023/08/17 02:33:28;;;;;;;12.95;9.80;;;16.60;99.90;;;;;;7271470;32;20120;-55
2023/08/17 02:37:30;;;;;;;11.98;9.52;;;16.60;99.90;;;;;;7267703;32;20127;-55
2023/08/17 02:41:32;;;;;;;14.68;10.00;;;16.60;99.90;;;;;;7269959;32;20338;-55
2023/08/17 02:45:34;;;;;;;10.93;9.52;;;16.60;99.90;;;;;;7263865;32;20092;-55
2023/08/17 02:49:36;;;;;;;13.32;10.15;;;16.60;99.90;;;;;;7272905;32;20108;-55
2023/08/17 02:53:38;;;;;;;12.20;10.55;;;16.60;99.90;;;;;;7269613;32;20212;-55
2023/08/17 02:57:39;;;;;;;14.68;10.80;;;16.50;99.90;;;;;;7264768;32;20129;-55
2023/08/17 03:01:43;;;;;;;15.90;11.95;;;16.50;99.90;;;;;;7264907;32;20112;-54
2023/08/17 03:05:45;;;;;;;15.18;11.95;;;16.40;99.90;;;;;;7270705;32;20229;-55
2023/08/17 03:09:46;;;;;;;15.45;11.75;;;16.40;99.90;;;;;;7268270;32;20154;-55
2023/08/17 03:13:48;;;;;;;16.83;10.52;;;16.40;99.90;;;;;;7265787;32;20127;-55
2023/08/17 03:17:50;;;;;;;15.95;11.27;;;16.40;99.90;;;;;;7269008;32;20218;-55
2023/08/17 03:21:52;;;;;;;13.90;10.20;;;16.40;99.90;;;;;;7270406;32;20187;-55
2023/08/17 03:25:54;;;;;;;13.52;10.30;;;16.30;99.90;;;;;;7268094;32;20179;-56
2023/08/17 03:29:56;;;;;;;16.70;11.35;;;16.30;99.90;;;;;;7270384;32;20161;-56
2023/08/17 03:33:57;;;;;;;15.95;11.98;;;16.30;99.90;;;;;;7268790;32;20208;-55
2023/08/17 03:37:59;;;;;;;20.40;12.65;;;16.20;99.90;;;;;;7264889;32;20123;-55
2023/08/17 03:42:01;;;;;;;16.55;13.10;;;16.20;99.90;;;;;;7258940;32;20169;-55
2023/08/17 03:46:04;;;;;;;18.83;12.35;;;16.20;99.90;;;;;;7271752;32;20179;-56
2023/08/17 03:50:06;;;;;;;13.98;12.43;;;16.20;99.90;;;;;;7256497;32;20226;-55
2023/08/17 03:54:08;;;;;;;22.75;13.75;;;16.20;99.90;;;;;;7257041;32;20144;-55
2023/08/17 03:58:10;;;;;;;19.90;13.88;;;16.20;99.90;;;;;;7269747;32;20147;-55
2023/08/17 04:02:11;;;;;;;20.73;14.98;;;16.20;99.90;;;;;;7266227;32;20548;-55
2023/08/17 04:06:13;;;;;;;20.25;14.57;;;16.20;99.90;;;;;;7258318;32;20514;-56
2023/08/17 04:10:15;;;;;;;21.45;15.38;;;16.20;99.90;;;;;;7260220;32;20198;-55
2023/08/17 04:14:17;;;;;;;22.05;16.60;;;16.20;99.90;;;;;;7264480;32;20169;-56
2023/08/17 04:18:21;;;;;;;24.00;18.35;;;16.20;99.90;;;;;;7268437;32;20145;-55
2023/08/17 04:22:22;;;;;;;21.83;17.77;;;16.20;99.90;;;;;;7258457;32;20139;-55
2023/08/17 04:26:24;;;;;;;24.45;19.62;;;16.20;99.90;;;;;;7267805;32;20135;-55
2023/08/17 04:30:26;;;;;;;23.70;18.60;;;16.20;99.90;;;;;;7261495;32;20215;-56
2023/08/17 04:34:27;;;;;;;23.55;18.00;;;16.20;99.90;;;;;;7268401;32;20482;-55
2023/08/17 04:38:30;;;;;;;20.90;18.65;;;16.30;99.90;;;;;;7265428;32;20108;-56
2023/08/17 04:42:31;;;;;;;23.12;17.60;;;16.20;99.90;;;;;;7267040;32;20123;-55
2023/08/17 04:46:33;;;;;;;24.05;18.80;;;16.20;99.90;;;;;;7268168;32;20113;-56
2023/08/17 04:50:35;;;;;;;26.92;18.42;;;16.20;99.90;;;;;;7256304;32;20121;-56
2023/08/17 04:54:36;;;;;;;26.87;20.23;;;16.20;99.90;;;;;;7268841;32;20638;-56
2023/08/17 04:58:38;;;;;;;25.75;18.92;;;16.20;99.90;;;;;;7266485;32;20158;-57
2023/08/17 05:02:40;;;;;;;22.52;18.85;;;16.20;99.90;;;;;;7253692;32;20673;-56
2023/08/17 05:06:42;;;;;;;24.45;19.85;;;16.20;99.90;;;;;;7255012;32;20154;-57
2023/08/17 05:10:44;;;;;;;25.25;18.92;;;16.10;99.90;;;;;;7263709;32;20273;-56
2023/08/17 05:14:46;;;;;;;30.67;21.77;;;16.20;99.90;;;;;;7278094;32;20213;-56
2023/08/17 05:18:48;;;;;;;28.20;20.10;;;16.20;99.90;;;;;;7274610;32;20176;-57
2023/08/17 05:22:49;;;;;;;28.75;20.80;;;16.20;99.90;;;;;;7279193;32;20108;-58
2023/08/17 05:26:51;;;;;;;28.23;19.10;;;16.30;99.90;;;;;;7278193;32;20281;-56
2023/08/17 05:30:53;;;;;;;23.02;18.80;;;16.40;99.90;;;;;;7276768;32;20150;-56
2023/08/17 05:34:55;;;;;;;28.52;21.40;;;16.40;99.90;;;;;;7276742;32;20124;-56
2023/08/17 05:38:57;;;;;;;25.60;20.60;;;16.40;99.90;;;;;;7271469;32;20538;-56
2023/08/17 05:42:59;;;;;;;37.80;32.65;;;16.40;99.90;;;;;;7278809;32;20112;-56
2023/08/17 05:47:00;;;;;;;28.10;22.83;;;16.40;99.90;;;;;;7278879;32;20124;-56
2023/08/17 05:51:02;;;;;;;32.72;24.23;;;16.40;99.90;;;;;;7275219;32;20107;-56
2023/08/17 05:55:04;;;;;;;26.65;23.02;;;16.50;99.90;;;;;;7277067;32;20167;-56
2023/08/17 05:59:06;;;;;;;31.17;22.87;;;16.50;99.90;;;;;;7267136;32;20294;-57
2023/08/17 06:03:08;;;;;;;28.85;22.27;;;16.50;99.90;;;;;;7269914;32;20340;-56
2023/08/17 06:07:10;;;;;;;27.65;24.30;;;16.50;99.90;;;;;;7271228;32;20109;-56
2023/08/17 06:11:12;;;;;;;30.30;23.30;;;16.50;99.90;;;;;;7274223;32;20745;-57
2023/08/17 06:15:14;;;;;;;30.70;24.05;;;16.40;99.90;;;;;;7274232;32;20124;-56
2023/08/17 06:19:15;;;;;;;29.63;25.33;;;16.50;99.90;;;;;;7269394;32;20127;-55
2023/08/17 06:23:17;;;;;;;30.73;24.00;;;16.50;99.90;;;;;;7275107;32;20222;-56
2023/08/17 06:27:19;;;;;;;32.22;24.42;;;16.50;99.90;;;;;;7261601;32;20282;-55
2023/08/17 06:31:22;;;;;;;28.42;23.60;;;16.60;99.90;;;;;;7267114;32;20341;-54
2023/08/17 06:35:24;;;;;;;27.27;22.73;;;16.70;99.90;;;;;;7268581;32;20134;-55
2023/08/17 06:39:26;;;;;;;29.90;23.10;;;16.70;99.90;;;;;;7271288;32;20207;-55
2023/08/17 06:43:28;;;;;;;32.03;22.65;;;16.70;99.90;;;;;;7273369;32;20577;-56
2023/08/17 06:47:30;;;;;;;26.67;21.67;;;16.80;99.90;;;;;;7272011;32;20217;-56
2023/08/17 06:51:31;;;;;;;29.27;22.85;;;16.80;99.90;;;;;;7274042;32;20180;-57
2023/08/17 06:55:33;;;;;;;31.02;23.45;;;16.80;99.90;;;;;;7271291;32;20136;-56
2023/08/17 06:59:35;;;;;;;28.90;23.15;;;16.90;99.90;;;;;;7272493;32;20127;-56
2023/08/17 07:03:38;;;;;;;31.65;23.50;;;17.10;99.90;;;;;;7273737;32;20136;-55
2023/08/17 07:07:39;;;;;;;34.53;24.00;;;17.10;99.90;;;;;;7274865;32;20147;-56
2023/08/17 07:11:41;;;;;;;32.55;25.05;;;17.00;99.90;;;;;;7279009;32;20196;-56
2023/08/17 07:15:43;;;;;;;28.77;24.95;;;17.10;99.90;;;;;;7263956;32;20116;-56
2023/08/17 07:19:45;;;;;;;29.87;25.45;;;17.10;99.90;;;;;;7270028;32;20159;-55
2023/08/17 07:24:14;;;;;;;33.97;24.90;;;17.00;99.90;;;;;;7273782;32;20272;-56
2023/08/17 07:28:16;;;;;;;27.85;24.70;;;16.90;99.90;;;;;;7270740;32;20753;-57
2023/08/17 07:32:18;;;;;;;29.37;23.05;;;16.90;99.90;;;;;;7276406;32;20135;-56
2023/08/17 07:36:20;;;;;;;25.45;21.02;;;17.10;99.90;;;;;;7273934;32;20162;-56
2023/08/17 07:40:21;;;;;;;29.12;22.67;;;17.00;99.90;;;;;;7273453;32;20443;-57
2023/08/17 07:44:23;;;;;;;27.27;21.42;;;17.00;99.90;;;;;;7279164;32;20223;-56
2023/08/17 07:48:25;;;;;;;24.05;19.75;;;17.10;99.90;;;;;;7277221;32;20120;-56
2023/08/17 07:52:27;;;;;;;21.62;19.05;;;17.20;99.90;;;;;;7276640;32;20120;-56
2023/08/17 07:56:28;;;;;;;29.70;21.10;;;17.10;99.90;;;;;;7278268;32;20537;-56
2023/08/17 08:00:30;;;;;;;25.20;19.42;;;17.20;99.90;;;;;;7271749;32;20919;-56
2023/08/17 08:04:32;;;;;;;22.05;19.37;;;17.30;99.90;;;;;;7270996;32;20236;-56
2023/08/17 08:08:33;;;;;;;23.90;18.77;;;17.30;99.90;;;;;;7275621;32;20162;-57
2023/08/17 08:12:35;;;;;;;22.52;19.48;;;17.30;99.90;;;;;;7279420;32;20131;-56
2023/08/17 08:16:37;;;;;;;23.58;18.77;;;17.40;99.90;;;;;;7272231;32;20309;-56
2023/08/17 08:20:38;;;;;;;26.92;19.77;;;17.40;99.90;;;;;;7264627;32;20140;-56
2023/08/17 08:24:41;;;;;;;24.70;19.75;;;17.40;99.90;;;;;;7269292;32;20185;-56
2023/08/17 08:28:45;;;;;;;24.17;20.00;;;17.40;99.90;;;;;;7269484;32;20238;-57
2023/08/17 08:32:47;;;;;;;20.88;18.52;;;17.40;99.90;;;;;;7265807;32;20286;-55
2023/08/17 08:36:49;;;;;;;29.10;21.37;;;17.50;99.90;;;;;;7262987;32;20495;-55
2023/08/17 08:40:51;;;;;;;24.70;21.52;;;17.40;99.90;;;;;;7270538;32;20636;-55
2023/08/17 08:44:53;;;;;;;28.35;21.52;;;17.30;99.90;;;;;;7266210;32;20131;-56
2023/08/17 08:48:55;;;;;;;28.30;21.58;;;17.40;99.90;;;;;;7265619;32;20633;-56
2023/08/17 08:53:03;;;;;;;28.95;20.62;;;17.50;99.90;;;;;;7267430;32;20203;-56
2023/08/17 08:57:10;;;;;;;28.87;21.33;;;17.50;99.90;;;;;;7268781;32;20112;-56
2023/08/17 09:01:14;;;;;;;30.17;21.35;;;17.60;99.90;;;;;;7271124;32;20180;-57
2023/08/17 09:05:16;;;;;;;23.92;19.20;;;17.70;99.90;;;;;;7269834;32;20132;-56
2023/08/17 09:09:19;;;;;;;22.60;17.55;;;17.80;99.90;;;;;;7276397;32;20820;-56
2023/08/17 09:13:21;;;;;;;20.92;16.90;;;17.90;99.90;;;;;;7271281;32;20193;-55
2023/08/17 09:17:27;;;;;;;19.33;17.12;;;18.00;99.90;;;;;;7272242;32;20182;-55
2023/08/17 09:21:32;;;;;;;20.83;18.02;;;17.90;99.90;;;;;;7272238;32;20104;-56
2023/08/17 09:25:34;;;;;;;22.23;16.98;;;17.80;99.90;;;;;;7273003;32;20247;-56
2023/08/17 09:29:38;;;;;;;21.00;17.70;;;17.90;99.90;;;;;;7274678;32;20112;-57
2023/08/17 09:33:40;;;;;;;19.58;15.70;;;17.90;99.90;;;;;;7275477;32;20096;-56
2023/08/17 09:37:47;;;;;;;15.63;14.03;;;18.00;99.90;;;;;;7276260;32;20101;-56
2023/08/17 09:41:49;;;;;;;17.30;15.48;;;18.10;99.90;;;;;;7270126;32;20485;-56
2023/08/17 09:45:51;;;;;;;21.52;17.95;;;18.00;99.90;;;;;;7275252;32;20254;-57
2023/08/17 09:49:54;;;;;;;23.55;20.00;;;18.10;99.90;;;;;;7274869;32;20219;-56
2023/08/17 09:53:55;;;;;;;24.95;20.20;;;18.30;99.90;;;;;;7278535;32;20135;-56
2023/08/17 09:58:01;;;;;;;28.67;22.17;;;18.20;99.90;;;;;;7262273;32;20223;-56
2023/08/17 10:02:07;;;;;;;27.13;21.92;;;18.00;99.90;;;;;;7262289;32;20109;-57
2023/08/17 10:06:11;;;;;;;28.35;21.42;;;18.00;99.90;;;;;;7271917;32;20295;-56
2023/08/17 10:10:16;;;;;;;28.52;22.05;;;18.10;99.90;;;;;;7273096;32;20172;-56
2023/08/17 10:14:23;;;;;;;26.12;21.25;;;18.40;99.90;;;;;;7277220;32;20135;-57
2023/08/17 10:18:35;;;;;;;;;;;18.30;99.90;;;;;;7270546;32;20251;-56
2023/08/17 10:22:56;;;;;;;24.35;18.52;;;18.50;99.90;;;;;;7275294;32;20017;-57
2023/08/17 10:26:58;;;;;;;22.85;20.00;;;18.80;99.90;;;;;;7271187;32;20203;-56
2023/08/17 10:31:01;;;;;;;25.02;19.48;;;18.70;99.90;;;;;;7273513;32;20135;-57
2023/08/17 10:35:04;;;;;;;23.55;20.17;;;18.60;99.90;;;;;;7278320;32;20346;-56
2023/08/17 10:39:22;;;;;;;23.10;18.90;;;18.60;99.90;;;;;;7269505;32;20123;-56
2023/08/17 10:43:34;;;;;;;25.70;21.75;;;19.00;99.90;;;;;;7279146;32;20108;-57
2023/08/17 10:47:36;;;;;;;28.53;22.10;;;19.20;99.90;;;;;;7276822;32;20124;-58
2023/08/17 10:51:38;;;;;;;25.58;20.48;;;19.20;99.90;;;;;;7275830;32;20580;-57
2023/08/17 10:55:44;;;;;;;29.35;22.50;;;19.00;99.90;;;;;;7273764;32;20127;-56
2023/08/17 10:59:45;;;;;;;23.00;20.50;;;18.70;99.90;;;;;;7277702;32;20172;-57
2023/08/17 11:03:57;;;;;;;24.67;21.00;;;18.70;99.90;;;;;;7273953;32;20267;-57
2023/08/17 11:07:59;;;;;;;21.80;18.83;;;18.50;99.90;;;;;;7269803;32;20637;-56
2023/08/17 11:12:01;;;;;;;21.08;17.15;;;18.90;99.90;;;;;;7263461;32;20209;-56
2023/08/17 11:16:04;;;;;;;22.20;16.02;;;19.10;99.90;;;;;;7263685;32;20170;-56
2023/08/17 11:20:09;;;;;;;18.45;16.58;;;19.20;99.90;;;;;;7272368;32;20254;-56
2023/08/17 11:24:16;;;;;;;15.95;13.20;;;19.50;99.90;;;;;;7267724;32;20250;-59
2023/08/17 11:28:18;;;;;;;13.43;12.05;;;19.70;99.90;;;;;;7272040;32;20104;-57
2023/08/17 11:32:20;;;;;;;14.75;11.15;;;20.10;99.90;;;;;;7274402;32;20131;-55
2023/08/17 11:36:23;;;;;;;15.55;12.43;;;20.20;99.90;;;;;;7273464;32;20154;-56
2023/08/17 11:40:26;;;;;;;16.40;12.73;;;19.90;99.90;;;;;;7265378;32;20202;-55
2023/08/17 11:44:28;;;;;;;13.93;11.90;;;19.90;99.90;;;;;;7275636;32;20241;-56
2023/08/17 11:48:30;;;;;;;12.80;11.35;;;20.20;99.90;;;;;;7268001;32;20116;-56
2023/08/17 11:52:38;;;;;;;16.35;14.60;;;20.10;99.90;;;;;;7266588;32;20157;-55
2023/08/17 11:56:41;;;;;;;18.75;15.00;;;20.30;99.90;;;;;;7270357;32;20499;-55
2023/08/17 12:00:47;;;;;;;16.98;14.98;;;20.20;99.90;;;;;;7265914;32;22370;-55
2023/08/17 12:04:49;;;;;;;15.80;13.50;;;20.20;99.90;;;;;;7265479;32;20105;-56
2023/08/17 12:08:50;;;;;;;17.17;14.70;;;20.30;99.90;;;;;;7260714;32;20124;-55
2023/08/17 12:12:52;;;;;;;14.00;12.40;;;20.00;99.90;;;;;;7264548;32;20124;-56
2023/08/17 12:16:55;;;;;;;15.30;12.80;;;20.10;99.90;;;;;;7271104;32;20104;-54
2023/08/17 12:20:57;;;;;;;14.80;12.60;;;20.20;99.90;;;;;;7258061;32;20105;-55
2023/08/17 12:24:59;;;;;;;13.10;11.90;;;20.10;99.90;;;;;;7264990;32;20186;-57
2023/08/17 12:29:02;;;;;;;13.43;12.02;;;20.10;99.90;;;;;;7273603;32;20126;-55
2023/08/17 12:33:04;;;;;;;14.48;11.70;;;20.20;99.90;;;;;;7271213;32;20249;-56
2023/08/17 12:37:09;;;;;;;13.50;11.57;;;20.10;99.90;;;;;;7289250;32;20124;-55
2023/08/17 12:41:11;;;;;;;12.52;11.15;;;19.90;99.90;;;;;;7268483;32;20290;-55
2023/08/17 12:45:13;;;;;;;13.20;11.20;;;19.80;99.90;;;;;;7271142;32;20235;-56
2023/08/17 12:49:15;;;;;;;13.40;11.25;;;19.60;99.90;;;;;;7272068;32;20128;-55
2023/08/17 12:53:17;;;;;;;16.27;11.20;;;19.80;99.90;;;;;;7273403;32;21049;-55
2023/08/17 12:57:19;;;;;;;11.95;10.60;;;19.70;99.90;;;;;;7270876;32;20684;-55
2023/08/17 13:01:21;;;;;;;10.50;9.40;;;19.80;99.90;;;;;;7265792;32;20596;-54
2023/08/17 13:05:22;;;;;;;11.80;9.75;;;20.00;99.90;;;;;;7268381;32;20226;-54
2023/08/17 13:09:24;;;;;;;17.48;11.45;;;20.00;99.90;;;;;;7269990;32;20116;-53
2023/08/17 13:13:26;;;;;;;11.00;9.90;;;19.80;99.90;;;;;;7270150;32;20115;-53
2023/08/17 13:17:28;;;;;;;10.35;9.15;;;19.80;99.90;;;;;;7271798;32;20196;-53
2023/08/17 13:21:30;;;;;;;10.80;9.68;;;19.90;99.90;;;;;;7268672;32;20112;-53
2023/08/17 13:25:31;;;;;;;12.55;8.70;;;19.90;99.90;;;;;;7269234;32;20284;-55
2023/08/17 13:29:35;;;;;;;13.10;10.00;;;20.10;99.90;;;;;;7269778;32;20288;-53
2023/08/17 13:33:37;;;;;;;10.63;9.35;;;20.10;99.90;;;;;;7264060;32;20128;-54
2023/08/17 13:37:39;;;;;;;9.75;8.82;;;20.30;99.90;;;;;;7263169;32;20108;-54
2023/08/17 13:41:42;;;;;;;11.68;9.75;;;20.50;99.90;;;;;;7283006;32;20248;-53
2023/08/17 13:45:44;;;;;;;10.02;8.50;;;20.60;99.90;;;;;;7272450;32;20115;-53
2023/08/17 13:49:46;;;;;;;11.18;9.00;;;20.80;99.90;;;;;;7267969;32;20176;-53
2023/08/17 13:53:47;;;;;;;13.55;9.57;;;20.70;99.90;;;;;;7269903;32;20248;-53
2023/08/17 13:57:49;;;;;;;9.05;8.15;;;20.90;99.90;;;;;;7267139;32;20267;-53
2023/08/17 14:01:51;;;;;;;9.20;7.25;;;21.10;99.90;;;;;;7276010;32;20219;-53
2023/08/17 14:05:53;;;;;;;7.32;6.60;;;21.10;99.90;;;;;;7270473;32;20112;-54
2023/08/17 14:09:54;;;;;;;8.27;6.95;;;21.40;99.90;;;;;;7265114;32;20635;-54
2023/08/17 14:14:09;;;;;;;8.57;7.70;;;21.50;99.90;;;;;;7274911;32;20549;-53
2023/08/17 14:18:11;;;;;;;10.63;8.60;;;21.50;99.90;;;;;;7266478;32;20131;-55
2023/08/17 14:22:13;;;;;;;8.05;7.28;;;21.30;99.90;;;;;;7275450;32;20136;-56
2023/08/17 14:26:15;;;;;;;15.82;12.37;;;21.40;99.90;;;;;;7270849;32;20234;-56
2023/08/17 14:30:17;;;;;;;15.30;12.35;;;21.40;99.90;;;;;;7266001;32;20128;-56
2023/08/17 14:34:19;;;;;;;14.60;11.55;;;21.00;99.90;;;;;;7264731;32;20198;-56
2023/08/17 14:38:21;;;;;;;19.00;14.13;;;21.00;99.90;;;;;;7272205;32;20550;-56
2023/08/17 14:42:23;;;;;;;16.45;14.35;;;20.80;99.90;;;;;;7264173;32;20206;-55
2023/08/17 14:46:26;;;;;;;17.75;15.43;;;20.80;99.90;;;;;;7269072;32;20138;-56
2023/08/17 14:50:28;;;;;;;20.25;15.38;;;20.80;99.90;;;;;;7267382;32;20248;-56
2023/08/17 14:54:30;;;;;;;20.83;16.65;;;20.90;99.90;;;;;;7268932;32;20197;-56
2023/08/17 14:58:34;;;;;;;18.90;14.55;;;21.00;99.90;;;;;;7261186;32;20161;-56
2023/08/17 15:02:35;;;;;;;20.27;15.02;;;20.90;99.90;;;;;;7265390;32;20506;-56
2023/08/17 15:06:37;;;;;;;17.83;13.40;;;21.00;99.90;;;;;;7272400;32;20312;-56
2023/08/17 15:10:43;;;;;;;16.10;12.98;;;21.10;99.90;;;;;;7268769;32;20119;-56
2023/08/17 15:14:45;;;;;;;18.75;13.60;;;21.40;99.90;;;;;;7266311;32;20582;-55
2023/08/17 15:18:46;;;;;;;14.55;12.23;;;21.10;99.90;;;;;;7268876;32;20112;-56
2023/08/17 15:22:48;;;;;;;15.57;13.05;;;21.10;99.90;;;;;;7263950;32;20206;-56
2023/08/17 15:26:50;;;;;;;15.95;14.32;;;21.20;99.90;;;;;;7268412;32;20185;-56
2023/08/17 15:31:02;;;;;;;16.25;14.05;;;21.30;99.90;;;;;;7269334;32;20566;-55
2023/08/17 15:35:04;;;;;;;14.77;12.23;;;21.10;99.90;;;;;;7270091;32;20372;-56
2023/08/17 15:39:07;;;;;;;14.80;12.15;;;21.10;99.90;;;;;;7265573;32;20112;-59
2023/08/17 15:43:08;;;;;;;12.68;11.35;;;21.00;99.90;;;;;;7268133;32;20100;-57
2023/08/17 15:47:10;;;;;;;16.40;11.93;;;21.10;99.90;;;;;;7267005;32;20108;-57
2023/08/17 15:51:12;;;;;;;15.80;12.37;;;21.20;99.90;;;;;;7270308;32;20150;-57
2023/08/17 15:55:14;;;;;;;12.65;11.27;;;21.10;99.90;;;;;;7271266;32;20111;-57
2023/08/17 15:59:16;;;;;;;16.25;13.43;;;21.10;99.90;;;;;;7269473;32;20168;-59
2023/08/17 16:03:17;;;;;;;16.20;13.23;;;21.00;99.90;;;;;;7263527;32;20180;-57
2023/08/17 16:07:19;;;;;;;16.37;14.50;;;20.90;99.90;;;;;;7266743;32;20108;-57
2023/08/17 16:11:21;;;;;;;21.10;16.33;;;20.80;99.90;;;;;;7266307;32;20644;-57
2023/08/17 16:15:23;;;;;;;22.05;15.85;;;20.50;99.90;;;;;;7268720;32;20580;-57
2023/08/17 16:19:24;;;;;;;19.98;16.10;;;20.40;99.90;;;;;;7276905;32;20798;-56
2023/08/17 16:23:26;;;;;;;18.15;16.23;;;20.30;99.90;;;;;;7275768;32;20127;-56
2023/08/17 16:27:28;;;;;;;20.45;16.42;;;20.30;99.90;;;;;;7272225;32;20265;-57
2023/08/17 16:31:33;;;;;;;20.17;17.95;;;20.40;99.90;;;;;;7273175;32;20120;-57
2023/08/17 16:35:36;;;;;;;18.90;16.33;;;20.30;99.90;;;;;;7269248;32;20268;-57
2023/08/17 16:39:37;;;;;;;21.00;17.70;;;20.40;99.90;;;;;;7270450;32;20155;-56
2023/08/17 16:43:39;;;;;;;21.55;16.40;;;20.30;99.90;;;;;;7275766;32;20116;-56
2023/08/17 16:47:41;;;;;;;17.73;15.77;;;20.30;99.90;;;;;;7275679;32;20314;-57
2023/08/17 16:51:44;;;;;;;20.50;16.02;;;20.20;99.90;;;;;;7271900;32;20109;-56
2023/08/17 16:55:45;;;;;;;21.10;15.55;;;20.30;99.90;;;;;;7276541;32;20209;-56
2023/08/17 16:59:55;;;;;;;18.50;16.42;;;20.30;99.90;;;;;;7266270;32;20489;-57
2023/08/17 17:03:57;;;;;;;17.52;15.25;;;20.30;99.90;;;;;;7276654;32;20120;-57
2023/08/17 17:07:59;;;;;;;19.90;15.60;;;20.30;99.90;;;;;;7271388;32;20358;-57
2023/08/17 17:12:03;;;;;;;19.73;16.33;;;20.20;99.90;;;;;;7271934;32;20108;-57
2023/08/17 17:16:05;;;;;;;20.60;16.95;;;20.00;99.90;;;;;;7268348;32;20117;-56
2023/08/17 17:20:07;;;;;;;20.95;15.70;;;19.80;99.90;;;;;;7270561;32;20499;-57
2023/08/17 17:24:09;;;;;;;23.02;17.50;;;19.80;99.90;;;;;;7265688;32;20199;-57
2023/08/17 17:28:11;;;;;;;20.23;15.68;;;19.60;99.90;;;;;;7267699;32;20210;-57
2023/08/17 17:32:13;;;;;;;20.33;15.52;;;19.80;99.90;;;;;;7270318;32;20554;-55
2023/08/17 17:36:14;;;;;;;21.30;15.52;;;19.70;99.90;;;;;;7268898;32;20096;-56
2023/08/17 17:40:16;;;;;;;17.58;13.45;;;19.60;99.90;;;;;;7270003;32;20295;-57
2023/08/17 17:44:18;;;;;;;16.40;13.43;;;19.60;99.90;;;;;;7269653;32;20255;-57
2023/08/17 17:48:19;;;;;;;18.67;12.88;;;19.50;99.90;;;;;;7268056;32;20498;-56
2023/08/17 17:52:25;;;;;;;15.73;13.32;;;19.50;99.90;;;;;;7267635;32;20136;-56
2023/08/17 17:56:40;;;;;;;13.65;11.93;;;19.40;99.90;;;;;;7268107;32;20593;-55
2023/08/17 18:00:42;;;;;;;22.40;13.13;;;19.40;99.90;;;;;;7273636;32;20109;-56
2023/08/17 18:04:43;;;;;;;19.62;15.48;;;19.40;99.90;;;;;;7267353;32;20116;-56
2023/08/17 18:08:45;;;;;;;14.85;13.30;;;19.20;99.90;;;;;;7271649;32;20120;-57
2023/08/17 18:12:47;;;;;;;16.90;13.40;;;19.20;99.90;;;;;;7275947;32;20649;-56
2023/08/17 18:16:49;;;;;;;19.50;15.68;;;19.10;99.90;;;;;;7270969;32;20474;-57
2023/08/17 18:20:50;;;;;;;17.40;15.48;;;19.00;99.90;;;;;;7270825;32;20325;-57
2023/08/17 18:24:52;;;;;;;18.48;16.48;;;19.00;99.90;;;;;;7270301;32;20289;-56
2023/08/17 18:28:55;;;;;;;19.17;17.17;;;18.90;99.90;;;;;;7261781;32;20463;-56
2023/08/17 18:32:57;;;;;;;18.55;16.37;;;18.80;99.90;;;;;;7261222;32;20128;-56
2023/08/17 18:36:59;;;;;;;19.27;16.80;;;18.80;99.90;;;;;;7268512;32;20108;-57
2023/08/17 18:41:08;;;;;;;18.85;16.52;;;18.80;99.90;;;;;;7270922;32;20199;-57
2023/08/17 18:45:10;;;;;;;19.73;16.10;;;18.80;99.90;;;;;;7266446;32;20692;-57
2023/08/17 18:49:11;;;;;;;21.50;16.00;;;18.70;99.90;;;;;;7273696;32;20300;-57
2023/08/17 18:53:13;;;;;;;19.17;17.08;;;18.60;99.90;;;;;;7274739;32;20166;-57
2023/08/17 18:57:15;;;;;;;22.80;17.92;;;18.50;99.90;;;;;;7269585;32;20529;-56
2023/08/17 19:01:16;;;;;;;18.48;16.10;;;18.40;99.90;;;;;;7269181;32;20291;-55
2023/08/17 19:05:18;;;;;;;18.98;15.25;;;18.40;99.90;;;;;;7271698;32;20231;-56
2023/08/17 19:09:20;;;;;;;15.50;13.90;;;18.40;99.90;;;;;;7265844;32;20290;-57
2023/08/17 19:13:21;;;;;;;16.00;12.95;;;18.30;99.90;;;;;;7271418;32;20463;-56
2023/08/17 19:17:23;;;;;;;16.27;13.82;;;18.30;99.90;;;;;;7269486;32;20128;-55
2023/08/17 19:21:25;;;;;;;16.70;14.90;;;18.20;99.90;;;;;;7265601;32;21153;-56
2023/08/17 19:25:27;;;;;;;19.37;15.02;;;18.10;99.90;;;;;;7267359;32;20256;-57
2023/08/17 19:29:29;;;;;;;21.45;16.62;;;18.10;99.90;;;;;;7264525;32;20126;-56
2023/08/17 19:33:31;;;;;;;18.27;16.23;;;18.10;99.90;;;;;;7263569;32;20191;-55
2023/08/17 19:37:33;;;;;;;18.17;15.07;;;18.10;99.90;;;;;;7272356;32;20185;-56
2023/08/17 19:41:35;;;;;;;19.10;15.95;;;18.00;99.90;;;;;;7268336;32;20210;-55
2023/08/17 19:45:37;;;;;;;20.25;16.80;;;18.00;99.90;;;;;;7268661;32;20171;-56
2023/08/17 19:49:39;;;;;;;19.58;17.30;;;17.90;99.90;;;;;;7269635;32;20468;-55
2023/08/17 19:53:40;;;;;;;20.73;17.10;;;17.90;99.90;;;;;;7266483;32;20644;-56
2023/08/17 19:57:42;;;;;;;19.77;16.40;;;17.90;99.90;;;;;;7266489;32;20914;-55
2023/08/17 20:01:46;;;;;;;20.48;16.20;;;17.90;99.90;;;;;;7267438;32;20236;-55
2023/08/17 20:05:48;;;;;;;17.58;15.68;;;17.80;99.90;;;;;;7272300;32;20172;-56
2023/08/17 20:09:49;;;;;;;19.15;15.23;;;17.80;99.90;;;;;;7266433;32;20350;-54
2023/08/17 20:13:51;;;;;;;16.73;14.27;;;17.80;99.90;;;;;;7264838;32;21127;-54
2023/08/17 20:17:53;;;;;;;19.08;16.83;;;17.70;99.90;;;;;;7261894;32;20147;-55
2023/08/17 20:21:54;;;;;;;20.67;15.68;;;17.70;99.90;;;;;;7265240;32;20238;-56
2023/08/17 20:25:56;;;;;;;17.10;13.65;;;17.70;99.90;;;;;;7259090;32;20120;-56
2023/08/17 20:29:58;;;;;;;21.35;16.40;;;17.60;99.90;;;;;;7263897;32;20781;-56
2023/08/17 20:34:00;;;;;;;16.95;14.70;;;17.50;99.90;;;;;;7262171;32;20145;-55